Ana Sayfa
METAR-TAF:

METAR-TAF

Havaalanları :

Johnson County Executive Airport

Olathe, Kansas, Amerika Birleşik Devletleri

Enlem: 38-51-00N, Boylam: 094-44-21W, yükseklik: 334 m

Güncel hava durumu gözlemi

Rapor saat 10:53 UTC de 26 dakika önce yapıldı.
Rüzgar güneydan 14 kt ve 24 kt'a kadar ani rüzgarlar
Sıcaklık 24°C
Nem 83%
Basınç 1009 hPa
Görüş mesafesi: 16.1 km
2400 ft yükseklikte çok bulutlu

METAR: KOJC 181053Z AUTO 18014G24KT 10SM OVC024 24/21 A2981 RMK AO2 PK WND 18026/1034 SLP079 T02440206

Saat: 06:19 (11:19 UTC)


TAF: eksik

4.000'den fazla havaalanı için hava durumu gözlemleri ve tahminleri (METAR ve TAF raporları).

Kullanılabilir istasyonlar harita üzerinde sarı ve kırmızı noktalarla gösterilir.

İstasyonun adını görmek için fareyi noktanın üzerinde gezdirin.

Sonrasında hava gözlem ve tahminlerini görmek için tıklayın.

Haritayı değiştirmek için: yaklaştırmak için siyah artı işaretli yeşil düğmeye ve uzaklaştırmak için de eksi işaretli düğmeye hızla tıklayın; bitişik haritalar için yeşil okları kullanın.


METAR-TAF: